createdAt,value
2023-05-01T00:00:53.983Z,98282.63
2023-05-01T00:03:21.822Z,98277.16
2023-05-01T00:05:48.803Z,98277.88
2023-05-01T00:08:16.153Z,98278.69
2023-05-01T00:10:42.909Z,98277.38
2023-05-01T00:13:10.325Z,98276.69
2023-05-01T00:18:12.007Z,98268.41
2023-05-01T00:20:38.721Z,98264.34
2023-05-01T00:23:05.476Z,98261.78
2023-05-01T00:25:32.209Z,98261.13
2023-05-01T00:28:00.031Z,98257.66
2023-05-01T00:30:28.015Z,98248.22
2023-05-01T00:32:54.797Z,98244.41
2023-05-01T00:35:21.458Z,98247.81
2023-05-01T00:37:48.321Z,98244.31
2023-05-01T00:40:14.973Z,98239.72
2023-05-01T00:42:41.659Z,98240.72
2023-05-01T00:45:09.122Z,98234.56
2023-05-01T00:47:36.361Z,98235.56
2023-05-01T00:50:04.105Z,98227.53
2023-05-01T00:52:31.170Z,98236.22
2023-05-01T01:13:43.545Z,98218.88
2023-05-01T01:19:22.446Z,98208.34
2023-05-01T01:21:55.802Z,98209.28
2023-05-01T01:24:51.453Z,98209.41
2023-05-01T01:27:39.862Z,98208.88
2023-05-01T01:30:25.273Z,98202.34
2023-05-01T01:35:52.902Z,98203.47
2023-05-01T01:38:25.125Z,98196.81
2023-05-01T01:40:58.748Z,98192.75
2023-05-01T01:43:27.321Z,98197.25
2023-05-01T01:45:59.660Z,98196.25
2023-05-01T01:48:33.271Z,98197.56
2023-05-01T01:51:01.814Z,98198.50
2023-05-01T01:53:31.278Z,98195.94
2023-05-01T01:56:03.057Z,98192.44
2023-05-01T01:58:31.819Z,98192.88
2023-05-01T02:00:59.481Z,98202.44
2023-05-01T02:03:26.991Z,98197.09
2023-05-01T02:05:55.221Z,98196.28
2023-05-01T02:08:23.782Z,98186.56
2023-05-01T02:10:51.243Z,98183.75
2023-05-01T02:13:20.153Z,98177.44
2023-05-01T02:15:48.513Z,98170.47
2023-05-01T02:18:16.397Z,98174.72
2023-05-01T02:20:44.225Z,98174.50
2023-05-01T02:23:13.265Z,98173.97
2023-05-01T02:25:40.723Z,98170.66
2023-05-01T02:28:13.852Z,98174.69
2023-05-01T02:30:40.767Z,98168.19
2023-05-01T02:35:47.472Z,98161.06
2023-05-01T02:38:15.374Z,98161.78
2023-05-01T02:40:47.078Z,98158.38
2023-05-01T02:43:18.705Z,98148.16
2023-05-01T02:45:46.968Z,98145.13
2023-05-01T02:48:18.889Z,98149.50
2023-05-01T02:50:47.170Z,98148.31
2023-05-01T02:53:15.955Z,98144.88
2023-05-01T02:55:43.296Z,98142.28
2023-05-01T03:00:51.257Z,98137.88
2023-05-01T03:03:18.163Z,98140.59
2023-05-01T03:05:45.032Z,98139.16
2023-05-01T03:08:12.002Z,98143.03
2023-05-01T03:10:44.705Z,98138.22
2023-05-01T03:13:12.384Z,98143.75
2023-05-01T03:15:39.502Z,98150.84
2023-05-01T03:18:06.952Z,98144.44
2023-05-01T03:20:35.953Z,98139.84
2023-05-01T03:23:02.761Z,98139.84
2023-05-01T03:25:30.125Z,98134.16
2023-05-01T03:27:56.764Z,98138.06
2023-05-01T03:30:23.505Z,98139.09
2023-05-01T03:32:51.900Z,98140.69
2023-05-01T03:37:49.855Z,98129.81
2023-05-01T03:40:16.640Z,98128.91
2023-05-01T03:42:43.356Z,98132.41
2023-05-01T03:45:10.659Z,98123.91
2023-05-01T03:47:37.376Z,98121.50
2023-05-01T03:50:05.074Z,98122.69
2023-05-01T03:52:31.843Z,98112.84
2023-05-01T03:54:58.455Z,98118.13
2023-05-01T03:57:25.188Z,98118.66
2023-05-01T03:59:51.928Z,98117.66
2023-05-01T04:02:18.762Z,98114.84
2023-05-01T04:04:45.523Z,98110.72
2023-05-01T04:09:50.664Z,98115.03
2023-05-01T04:12:17.394Z,98115.59
2023-05-01T04:14:44.761Z,98113.75
2023-05-01T04:17:11.817Z,98112.88
2023-05-01T04:22:09.770Z,98113.84
2023-05-01T04:24:36.805Z,98109.69
2023-05-01T04:27:03.586Z,98108.25
2023-05-01T04:29:30.306Z,98113.72
2023-05-01T04:31:57.273Z,98108.69
2023-05-01T04:34:24.024Z,98115.34
2023-05-01T04:36:52.101Z,98117.56
2023-05-01T04:39:18.773Z,98121.38
2023-05-01T04:41:45.485Z,98114.97
2023-05-01T04:44:12.197Z,98117.09
2023-05-01T04:46:39.008Z,98115.41
2023-05-01T04:49:05.690Z,98114.31
2023-05-01T04:51:32.386Z,98115.22
2023-05-01T04:53:59.041Z,98113.09
2023-05-01T04:56:26.508Z,98113.16
2023-05-01T04:58:53.254Z,98111.66
2023-05-01T05:01:20.057Z,98116.38
2023-05-01T05:03:49.551Z,98111.91
2023-05-01T05:06:16.906Z,98109.13
2023-05-01T05:11:15.145Z,98112.06
2023-05-01T05:13:41.817Z,98113.66
2023-05-01T05:16:08.603Z,98123.16
2023-05-01T05:18:35.279Z,98120.88
2023-05-01T05:21:05.649Z,98122.16
2023-05-01T05:23:32.534Z,98120.19
2023-05-01T05:26:02.227Z,98121.75
2023-05-01T05:28:29.871Z,98120.44
2023-05-01T05:30:57.496Z,98116.31
2023-05-01T05:33:27.397Z,98117.59
2023-05-01T05:35:54.139Z,98120.13
2023-05-01T05:38:20.788Z,98118.06
2023-05-01T05:40:47.733Z,98114.47
2023-05-01T05:43:14.424Z,98111.72
2023-05-01T05:48:12.649Z,98116.97
2023-05-01T05:53:16.884Z,98112.13
2023-05-01T05:55:45.543Z,98117.22
2023-05-01T05:58:12.287Z,98108.25
2023-05-01T06:00:38.959Z,98111.66
2023-05-01T06:03:05.809Z,98114.91
2023-05-01T06:05:32.869Z,98118.38
2023-05-01T06:07:59.569Z,98114.22
2023-05-01T06:10:26.262Z,98121.19
2023-05-01T06:12:54.768Z,98113.69
2023-05-01T06:15:25.973Z,98120.31
2023-05-01T06:17:52.772Z,98122.56
2023-05-01T06:20:19.545Z,98116.38
2023-05-01T06:22:47.072Z,98117.69
2023-05-01T06:25:14.112Z,98108.50
2023-05-01T06:27:40.832Z,98117.28
2023-05-01T06:30:09.168Z,98109.88
2023-05-01T06:32:35.897Z,98118.47
2023-05-01T06:37:33.914Z,98123.50
2023-05-01T06:40:00.591Z,98125.47
2023-05-01T06:42:27.365Z,98128.16
2023-05-01T06:44:54.026Z,98124.69
2023-05-01T06:47:21.670Z,98126.78
2023-05-01T06:49:48.357Z,98130.53
2023-05-01T06:52:15.047Z,98136.94
2023-05-01T06:54:42.047Z,98137.28
2023-05-01T06:57:08.669Z,98137.34
2023-05-01T06:59:35.340Z,98145.50
2023-05-01T07:02:02.143Z,98141.84
2023-05-01T07:04:28.839Z,98143.78
2023-05-01T07:06:55.558Z,98143.19
2023-05-01T07:09:22.278Z,98154.25
2023-05-01T07:11:49.722Z,98155.50
2023-05-01T07:14:16.433Z,98145.00
2023-05-01T07:16:43.183Z,98146.13
2023-05-01T07:19:09.886Z,98158.25
2023-05-01T07:21:37.080Z,98153.94
2023-05-01T07:24:03.900Z,98149.72
2023-05-01T07:26:30.558Z,98162.97
2023-05-01T07:28:57.243Z,98152.03
2023-05-01T07:31:24.082Z,98151.16
2023-05-01T07:33:51.229Z,98147.38
2023-05-01T07:36:20.662Z,98144.69
2023-05-01T07:41:18.805Z,98139.69
2023-05-01T07:43:45.500Z,98138.94
2023-05-01T07:46:13.111Z,98138.97
2023-05-01T07:51:11.460Z,98141.97
2023-05-01T07:56:10.312Z,98138.09
2023-05-01T07:58:37.456Z,98140.03
2023-05-01T08:03:37.854Z,98133.06
2023-05-01T08:06:05.582Z,98138.38
2023-05-01T08:08:32.363Z,98131.53
2023-05-01T08:10:59.075Z,98129.69
2023-05-01T08:13:26.110Z,98130.53
2023-05-01T08:15:53.249Z,98140.75
2023-05-01T08:18:21.384Z,98132.91
2023-05-01T08:23:32.172Z,98129.44
2023-05-01T08:25:59.019Z,98125.94
2023-05-01T08:28:25.829Z,98128.38
2023-05-01T08:30:52.634Z,98123.34
2023-05-01T08:33:19.690Z,98114.22
2023-05-01T08:35:46.550Z,98120.56
2023-05-01T08:40:51.462Z,98121.00
2023-05-01T08:43:18.373Z,98117.16
2023-05-01T08:45:47.450Z,98111.19
2023-05-01T08:48:17.697Z,98111.25
2023-05-01T08:50:47.386Z,98119.13
2023-05-01T08:53:17.368Z,98119.50
2023-05-01T08:55:48.987Z,98119.91
2023-05-01T08:58:18.422Z,98129.72
2023-05-01T09:00:46.665Z,98127.06
2023-05-01T09:03:17.013Z,98124.31
2023-05-01T09:05:43.923Z,98118.44
2023-05-01T09:08:11.140Z,98123.16
2023-05-01T09:13:16.512Z,98130.97
2023-05-01T09:15:43.762Z,98128.63
2023-05-01T09:18:12.144Z,98130.56
2023-05-01T09:20:39.014Z,98129.03
2023-05-01T09:23:06.703Z,98125.75
2023-05-01T09:25:33.469Z,98127.69
2023-05-01T09:28:00.216Z,98124.59
2023-05-01T09:30:34.201Z,98125.28
2023-05-01T09:33:15.169Z,98120.38
2023-05-01T09:35:55.814Z,98127.25
2023-05-01T09:38:24.495Z,98132.34
2023-05-01T09:40:53.860Z,98137.22
2023-05-01T09:43:30.897Z,98134.41
2023-05-01T09:46:11.048Z,98123.66
2023-05-01T09:48:38.750Z,98120.97
2023-05-01T09:51:30.440Z,98119.38
2023-05-01T09:54:02.920Z,98113.59
2023-05-01T09:59:20.451Z,98125.06
2023-05-01T10:01:49.536Z,98122.53
2023-05-01T10:04:16.464Z,98113.69
2023-05-01T10:06:43.324Z,98122.47
2023-05-01T10:09:17.745Z,98124.94
2023-05-01T10:11:52.547Z,98116.03
2023-05-01T10:14:20.520Z,98120.75
2023-05-01T10:16:47.447Z,98117.81
2023-05-01T10:19:17.103Z,98114.16
2023-05-01T10:21:44.250Z,98119.69
2023-05-01T10:24:11.408Z,98117.69
2023-05-01T10:26:38.188Z,98110.72
2023-05-01T10:29:04.917Z,98120.53
2023-05-01T10:31:33.374Z,98118.13
2023-05-01T10:34:02.158Z,98123.59
2023-05-01T10:36:40.173Z,98122.25
2023-05-01T10:39:07.379Z,98117.59
2023-05-01T10:41:58.696Z,98114.09
2023-05-01T10:44:27.361Z,98109.25
2023-05-01T10:46:55.202Z,98114.44
2023-05-01T10:49:22.508Z,98112.84
2023-05-01T10:52:04.315Z,98114.16
2023-05-01T10:54:32.720Z,98104.81
2023-05-01T10:57:02.022Z,98109.31
2023-05-01T11:00:04.050Z,98115.56
2023-05-01T11:02:30.867Z,98107.91
2023-05-01T11:04:57.914Z,98111.56
2023-05-01T11:07:25.588Z,98107.69
2023-05-01T11:09:57.830Z,98103.44
2023-05-01T11:12:49.248Z,98103.59
2023-05-01T11:15:28.000Z,98104.19
2023-05-01T11:17:56.198Z,98090.13
2023-05-01T11:20:25.557Z,98095.28
2023-05-01T11:22:56.711Z,98082.19
2023-05-01T11:25:27.445Z,98106.47
2023-05-01T11:27:56.465Z,98097.97
2023-05-01T11:30:23.234Z,98088.25
2023-05-01T11:32:51.356Z,98096.78
2023-05-01T11:35:22.156Z,98100.72
2023-05-01T11:37:51.521Z,98092.88
2023-05-01T11:40:29.501Z,98094.78
2023-05-01T11:43:06.212Z,98087.78
2023-05-01T11:45:34.306Z,98088.47
2023-05-01T11:48:04.518Z,98090.25
2023-05-01T11:50:33.972Z,98086.63
2023-05-01T11:53:00.871Z,98095.25
2023-05-01T11:55:34.944Z,98089.47
2023-05-01T11:58:02.511Z,98089.75
2023-05-01T12:00:38.351Z,98090.41
2023-05-01T12:03:08.717Z,98085.91
2023-05-01T12:05:37.622Z,98089.63
2023-05-01T12:08:10.372Z,98089.47
2023-05-01T12:10:38.354Z,98083.50
2023-05-01T12:13:06.524Z,98088.94
2023-05-01T12:15:39.428Z,98095.13
2023-05-01T12:18:06.418Z,98081.59
2023-05-01T12:23:39.776Z,98085.44
2023-05-01T12:26:20.302Z,98080.75
2023-05-01T12:29:00.745Z,98082.56
2023-05-01T12:31:28.314Z,98083.50
2023-05-01T12:33:56.945Z,98078.16
2023-05-01T12:36:25.629Z,98079.88
2023-05-01T12:38:56.363Z,98080.19
2023-05-01T12:41:41.208Z,98075.91
2023-05-01T12:44:30.868Z,98083.84
2023-05-01T12:47:05.105Z,98083.13
2023-05-01T12:49:32.772Z,98079.06
2023-05-01T12:52:01.423Z,98086.16
2023-05-01T12:54:30.571Z,98088.56
2023-05-01T12:57:16.920Z,98085.00
2023-05-01T12:59:46.427Z,98083.13
2023-05-01T13:02:16.345Z,98074.53
2023-05-01T13:04:49.549Z,98074.88
2023-05-01T13:07:18.378Z,98076.28
2023-05-01T13:09:56.287Z,98066.28
2023-05-01T13:12:24.450Z,98072.59
2023-05-01T13:14:51.578Z,98067.66
2023-05-01T13:17:32.499Z,98061.38
2023-05-01T13:20:05.094Z,98059.97
2023-05-01T13:22:36.813Z,98053.22
2023-05-01T13:25:14.386Z,98052.09
2023-05-01T13:27:42.085Z,98061.50
2023-05-01T13:30:10.685Z,98060.75
2023-05-01T13:32:41.672Z,98055.59
2023-05-01T13:37:40.391Z,98062.84
2023-05-01T13:40:07.757Z,98059.31
2023-05-01T13:42:34.481Z,98064.16
2023-05-01T13:45:05.923Z,98065.69
2023-05-01T13:47:32.744Z,98065.91
2023-05-01T13:49:59.696Z,98066.03
2023-05-01T13:52:27.019Z,98068.53
2023-05-01T13:54:56.447Z,98074.09
2023-05-01T13:57:23.316Z,98073.16
2023-05-01T13:59:50.002Z,98071.94
2023-05-01T14:02:25.154Z,98066.53
2023-05-01T14:04:52.185Z,98072.75
2023-05-01T14:07:21.074Z,98075.06
2023-05-01T14:09:54.725Z,98068.13
2023-05-01T14:12:28.412Z,98067.16
2023-05-01T14:14:55.202Z,98068.28
2023-05-01T14:17:30.027Z,98069.31
2023-05-01T14:19:56.777Z,98068.06
2023-05-01T14:22:23.587Z,98067.06
2023-05-01T14:24:51.327Z,98072.81
2023-05-01T14:27:19.964Z,98066.22
2023-05-01T14:29:47.138Z,98065.06
2023-05-01T14:32:15.015Z,98064.81
2023-05-01T14:34:42.992Z,98068.28
2023-05-01T14:37:10.293Z,98062.44
2023-05-01T14:39:37.044Z,98063.22
2023-05-01T14:42:06.301Z,98057.69
2023-05-01T14:44:33.117Z,98065.50
2023-05-01T14:47:00.581Z,98066.22
2023-05-01T14:49:27.347Z,98052.81
2023-05-01T14:54:27.241Z,98061.81
2023-05-01T14:56:54.015Z,98068.44
2023-05-01T14:59:22.998Z,98060.06
2023-05-01T15:01:49.825Z,98074.47
2023-05-01T15:04:17.060Z,98069.19
2023-05-01T15:06:44.087Z,98075.59
2023-05-01T15:09:10.967Z,98077.31
2023-05-01T15:11:37.729Z,98072.44
2023-05-01T15:14:04.521Z,98079.16
2023-05-01T15:16:31.890Z,98080.78
2023-05-01T15:18:58.936Z,98078.47
2023-05-01T15:21:25.651Z,98081.81
2023-05-01T15:23:52.559Z,98080.38
2023-05-01T15:26:19.341Z,98080.31
2023-05-01T15:28:46.052Z,98080.44
2023-05-01T15:31:12.823Z,98078.22
2023-05-01T15:33:39.554Z,98083.72
2023-05-01T15:36:06.556Z,98081.38
2023-05-01T15:38:33.219Z,98078.91
2023-05-01T15:40:59.877Z,98079.66
2023-05-01T15:43:26.607Z,98084.50
2023-05-01T15:48:31.233Z,98078.84
2023-05-01T15:50:57.923Z,98073.41
2023-05-01T15:53:24.621Z,98076.97
2023-05-01T15:55:51.831Z,98077.28
2023-05-01T15:58:19.269Z,98062.81
2023-05-01T16:00:47.610Z,98075.31
2023-05-01T16:03:16.058Z,98075.91
2023-05-01T16:05:47.326Z,98078.72
2023-05-01T16:08:14.565Z,98085.38
2023-05-01T16:10:41.335Z,98081.38
2023-05-01T16:13:07.986Z,98086.53
2023-05-01T16:15:36.984Z,98082.31
2023-05-01T16:18:04.665Z,98077.75
2023-05-01T16:20:39.587Z,98080.75
2023-05-01T16:23:06.521Z,98089.41
2023-05-01T16:25:33.221Z,98079.66
2023-05-01T16:28:00.113Z,98092.03
2023-05-01T16:30:28.383Z,98095.91
2023-05-01T16:32:55.217Z,98097.66
2023-05-01T16:35:27.269Z,98101.56
2023-05-01T16:37:55.025Z,98098.44
2023-05-01T16:40:22.446Z,98100.06
2023-05-01T16:42:54.968Z,98098.97
2023-05-01T16:45:21.916Z,98103.38
2023-05-01T16:47:48.749Z,98106.50
2023-05-01T16:50:16.663Z,98118.94
2023-05-01T16:52:43.384Z,98113.13
2023-05-01T16:55:10.381Z,98126.13
2023-05-01T16:57:37.208Z,98125.50
2023-05-01T17:00:05.504Z,98137.31
2023-05-01T17:02:33.562Z,98135.31
2023-05-01T17:05:00.585Z,98140.16
2023-05-01T17:07:27.380Z,98132.75
2023-05-01T17:09:54.184Z,98132.75
2023-05-01T17:12:20.904Z,98130.50
2023-05-01T17:14:47.846Z,98126.63
2023-05-01T17:17:15.304Z,98116.13
2023-05-01T17:22:19.022Z,98126.41
2023-05-01T17:24:45.968Z,98125.19
2023-05-01T17:27:13.928Z,98133.16
2023-05-01T17:29:41.731Z,98133.84
2023-05-01T17:32:08.436Z,98136.22
2023-05-01T17:34:35.261Z,98133.88
2023-05-01T17:39:33.766Z,98137.00
2023-05-01T17:42:00.595Z,98138.19
2023-05-01T17:44:27.423Z,98146.00
2023-05-01T17:46:54.178Z,98138.94
2023-05-01T17:49:20.930Z,98146.81
2023-05-01T17:51:47.623Z,98134.28
2023-05-01T17:56:48.110Z,98142.06
2023-05-01T17:59:14.847Z,98140.53
2023-05-01T18:01:41.619Z,98152.25
2023-05-01T18:04:09.805Z,98159.22
2023-05-01T18:06:37.091Z,98161.31
2023-05-01T18:09:04.214Z,98156.66
2023-05-01T18:11:30.905Z,98161.06
2023-05-01T18:13:57.774Z,98160.66
2023-05-01T18:16:25.012Z,98161.06
2023-05-01T18:18:51.744Z,98170.06
2023-05-01T18:21:18.390Z,98171.25
2023-05-01T18:23:46.466Z,98172.44
2023-05-01T18:26:14.645Z,98181.06
2023-05-01T18:28:41.348Z,98186.16
2023-05-01T18:31:08.288Z,98189.72
2023-05-01T18:33:35.044Z,98190.13
2023-05-01T18:36:01.938Z,98197.53
2023-05-01T18:38:29.065Z,98199.50
2023-05-01T18:40:56.036Z,98206.97
2023-05-01T18:43:22.785Z,98209.72
2023-05-01T18:45:49.421Z,98201.47
2023-05-01T18:48:16.673Z,98205.41
2023-05-01T18:50:45.785Z,98206.56
2023-05-01T18:53:18.088Z,98206.91
2023-05-01T18:55:44.752Z,98217.13
2023-05-01T18:58:11.438Z,98216.41
2023-05-01T19:00:39.034Z,98221.88
2023-05-01T19:03:05.993Z,98231.31
2023-05-01T19:05:32.824Z,98229.75
2023-05-01T19:08:02.051Z,98235.66
2023-05-01T19:10:28.803Z,98244.28
2023-05-01T19:12:55.579Z,98240.75
2023-05-01T19:15:22.451Z,98240.75
2023-05-01T19:17:49.179Z,98250.56
2023-05-01T19:20:16.145Z,98258.41
2023-05-01T19:22:42.831Z,98259.56
2023-05-01T19:25:09.881Z,98269.00
2023-05-01T19:27:36.531Z,98261.16
2023-05-01T19:30:04.159Z,98254.06
2023-05-01T19:32:30.849Z,98249.78
2023-05-01T19:34:57.543Z,98258.38
2023-05-01T19:37:24.259Z,98264.63
2023-05-01T19:39:51.214Z,98258.78
2023-05-01T19:44:55.034Z,98261.91
2023-05-01T19:47:21.771Z,98271.31
2023-05-01T19:49:48.460Z,98273.28
2023-05-01T19:52:15.322Z,98277.56
2023-05-01T19:54:43.846Z,98271.69
2023-05-01T19:57:11.762Z,98269.25
2023-05-01T19:59:41.295Z,98272.78
2023-05-01T20:02:08.183Z,98273.97
2023-05-01T20:04:35.038Z,98287.34
2023-05-01T20:07:03.013Z,98293.63
2023-05-01T20:09:29.643Z,98287.31
2023-05-01T20:11:56.368Z,98297.50
2023-05-01T20:14:23.049Z,98296.34
2023-05-01T20:16:51.000Z,98305.69
2023-05-01T20:19:18.067Z,98306.81
2023-05-01T20:21:44.692Z,98300.25
2023-05-01T20:24:11.585Z,98312.03
2023-05-01T20:26:38.257Z,98310.00
2023-05-01T20:29:04.963Z,98310.47
2023-05-01T20:31:31.733Z,98313.19
2023-05-01T20:33:58.563Z,98321.72
2023-05-01T20:36:25.610Z,98318.88
2023-05-01T20:38:53.355Z,98323.06
2023-05-01T20:41:20.054Z,98324.94
2023-05-01T20:43:46.684Z,98327.44
2023-05-01T20:46:13.547Z,98329.09
2023-05-01T20:48:40.425Z,98328.03
2023-05-01T20:51:07.111Z,98334.22
2023-05-01T20:53:33.821Z,98333.22
2023-05-01T20:58:33.378Z,98333.84
2023-05-01T21:01:00.542Z,98327.59
2023-05-01T21:03:27.459Z,98337.44
2023-05-01T21:06:01.370Z,98335.97
2023-05-01T21:08:28.708Z,98345.31
2023-05-01T21:10:55.734Z,98336.25
2023-05-01T21:13:25.020Z,98339.22
2023-05-01T21:15:52.508Z,98338.66
2023-05-01T21:18:20.676Z,98336.84
2023-05-01T21:20:48.936Z,98338.56
2023-05-01T21:23:17.660Z,98342.41
2023-05-01T21:25:44.748Z,98348.16
2023-05-01T21:30:49.128Z,98340.72
2023-05-01T21:33:17.641Z,98344.31
2023-05-01T21:35:47.180Z,98349.84
2023-05-01T21:38:13.938Z,98350.91
2023-05-01T21:40:42.212Z,98352.78
2023-05-01T21:43:09.965Z,98348.34
2023-05-01T21:45:40.729Z,98351.59
2023-05-01T21:48:08.627Z,98348.47
2023-05-01T21:50:36.990Z,98353.72
2023-05-01T21:53:05.760Z,98339.13
2023-05-01T21:55:33.638Z,98348.84
2023-05-01T21:58:00.933Z,98350.91
2023-05-01T22:00:28.329Z,98349.81
2023-05-01T22:02:55.100Z,98354.41
2023-05-01T22:05:23.110Z,98356.56
2023-05-01T22:07:51.542Z,98355.88
2023-05-01T22:10:19.932Z,98365.00
2023-05-01T22:12:48.988Z,98367.34
2023-05-01T22:15:16.259Z,98357.75
2023-05-01T22:17:43.298Z,98363.19
2023-05-01T22:20:11.081Z,98363.88
2023-05-01T22:25:12.417Z,98362.97
2023-05-01T22:27:39.248Z,98364.44
2023-05-01T22:30:06.976Z,98366.78
2023-05-01T22:32:34.015Z,98372.03
2023-05-01T22:40:15.937Z,98375.72
2023-05-01T22:42:42.623Z,98384.38
2023-05-01T22:45:10.511Z,98389.81
2023-05-01T22:47:37.337Z,98391.75
2023-05-01T22:50:04.511Z,98396.22
2023-05-01T22:52:31.269Z,98397.38
2023-05-01T22:54:57.979Z,98405.06
2023-05-01T22:57:24.697Z,98403.34
2023-05-01T22:59:51.468Z,98392.44
2023-05-01T23:02:19.118Z,98398.16
2023-05-01T23:04:46.319Z,98403.31
2023-05-01T23:07:13.830Z,98408.06
2023-05-01T23:09:40.771Z,98403.84
2023-05-01T23:12:09.027Z,98412.72
2023-05-01T23:14:45.421Z,98411.81
2023-05-01T23:17:14.905Z,98408.06
2023-05-01T23:19:43.606Z,98405.63
2023-05-01T23:22:12.608Z,98412.34
2023-05-01T23:24:44.052Z,98417.25
2023-05-01T23:27:12.608Z,98416.28
2023-05-01T23:29:40.904Z,98410.41
2023-05-01T23:32:10.840Z,98410.25
2023-05-01T23:34:40.318Z,98412.09
2023-05-01T23:39:38.332Z,98416.66
2023-05-01T23:42:06.418Z,98411.94
2023-05-01T23:44:33.620Z,98412.31
2023-05-01T23:47:00.443Z,98411.28
2023-05-01T23:49:27.217Z,98412.38
2023-05-01T23:51:53.898Z,98415.16
2023-05-01T23:54:20.647Z,98412.69
2023-05-01T23:56:47.342Z,98417.25
2023-05-01T23:59:15.068Z,98412.22
